Terminal Aerodrome Forecast
Issued by NWS Cleveland, OH

Home | Current Version | Previous Version | Text Only | Print | Product List | Glossary On
Versions: 1 2 3 4 5 6 7 8 9 10 11 12 13 14 15 16 17 18 19 20 21 22 23 24 25 26 27
330
FTUS41 KCLE 250540
TAFMFD
TAF
KMFD 250540Z 2506/2606 14015KT 5SM -RA BR SCT005 OVC045
     FM250800 19018G30KT 5SM RA BKN005 OVC030
     FM251100 24020G38KT P6SM OVC012
     FM251500 25020G30KT P6SM FEW012 SCT025=

USA.gov is the U.S. government's official web portal to all federal, state and local government web resources and services.